TimeEEST,TemperatureF,Dew PointF,Humidity,Sea Level PressureIn,VisibilityMPH,Wind Direction,Wind SpeedMPH,Gust SpeedMPH,PrecipitationIn,Events,Conditions,WindDirDegrees,DateUTC
12:20 AM,60.8,50.0,68,29.89,6.2,Variable,3.5,-,N/A,,Scattered Clouds,0,2012-10-25 21:20:00
12:50 AM,62.6,50.0,63,29.89,6.2,East,3.5,-,N/A,,Scattered Clouds,80,2012-10-25 21:50:00
1:20 AM,64.4,51.8,64,29.89,6.2,Variable,4.6,-,N/A,,Scattered Clouds,0,2012-10-25 22:20:00
1:50 AM,59.0,48.2,67,29.89,6.2,Variable,2.3,-,N/A,,Scattered Clouds,0,2012-10-25 22:50:00
2:20 AM,55.4,50.0,82,29.89,-9999.0,North,5.8,-,N/A,,Clear,350,2012-10-25 23:20:00
2:50 AM,55.4,51.8,88,29.89,-9999.0,North,6.9,-,N/A,,Clear,350,2012-10-25 23:50:00
3:00 AM,55,51,81,29.89,6,North,6.9,,,,,350,2012-10-26 00:00:00
3:20 AM,53.6,51.8,94,29.86,-9999.0,North,3.5,-,N/A,,Clear,350,2012-10-26 00:20:00
3:50 AM,53.6,51.8,94,29.86,-9999.0,NNW,4.6,-,N/A,,Clear,340,2012-10-26 00:50:00
4:20 AM,55.4,51.8,88,29.86,-9999.0,North,2.3,-,N/A,,Clear,350,2012-10-26 01:20:00
4:50 AM,53.6,51.8,94,29.86,-9999.0,North,5.8,-,N/A,,Clear,350,2012-10-26 01:50:00
5:20 AM,53.6,51.8,94,29.86,-9999.0,North,3.5,-,N/A,,Clear,350,2012-10-26 02:20:00
5:50 AM,53.6,51.8,94,29.86,-9999.0,NNW,4.6,-,N/A,,Clear,340,2012-10-26 02:50:00
6:20 AM,53.6,51.8,94,29.86,-9999.0,NNW,3.5,-,N/A,,Clear,340,2012-10-26 03:20:00
6:50 AM,55.4,53.6,94,29.86,-9999.0,NNW,2.3,-,N/A,,Clear,330,2012-10-26 03:50:00
7:20 AM,55.4,53.6,94,29.86,-9999.0,Variable,1.2,-,N/A,,Clear,0,2012-10-26 04:20:00
7:50 AM,55.4,53.6,94,29.86,-9999.0,Variable,1.2,-,N/A,,Clear,0,2012-10-26 04:50:00
8:20 AM,57.2,55.4,94,29.89,-9999.0,Variable,1.2,-,N/A,,Clear,0,2012-10-26 05:20:00
8:50 AM,62.6,59.0,88,29.89,6.2,Variable,2.3,-,N/A,,Scattered Clouds,0,2012-10-26 05:50:00
9:00 AM,62,59,86,29.90,6,South,2.3,,,,Partly Cloudy,180,2012-10-26 06:00:00
9:20 AM,64.4,59.0,83,29.89,6.2,SW,4.6,-,N/A,,Scattered Clouds,220,2012-10-26 06:20:00
9:50 AM,66.2,57.2,73,29.89,6.2,SSW,10.4,-,N/A,,Scattered Clouds,200,2012-10-26 06:50:00
10:20 AM,66.2,57.2,73,29.89,6.2,SSW,10.4,-,N/A,,Scattered Clouds,200,2012-10-26 07:20:00
10:50 AM,66.2,57.2,73,29.89,6.2,SSW,11.5,-,N/A,,Scattered Clouds,200,2012-10-26 07:50:00
11:20 AM,66.2,57.2,73,29.89,6.2,SSW,11.5,-,N/A,,Scattered Clouds,200,2012-10-26 08:20:00
11:50 AM,66.2,57.2,73,29.89,6.2,SSW,12.7,-,N/A,,Scattered Clouds,200,2012-10-26 08:50:00
12:20 PM,68.0,57.2,68,29.89,6.2,SW,10.4,-,N/A,,Scattered Clouds,230,2012-10-26 09:20:00
12:50 PM,66.2,55.4,68,29.89,6.2,SW,10.4,-,N/A,,Scattered Clouds,230,2012-10-26 09:50:00
1:20 PM,66.2,55.4,68,29.89,6.2,SW,9.2,-,N/A,,Scattered Clouds,230,2012-10-26 10:20:00
1:50 PM,68.0,55.4,64,29.89,6.2,SW,10.4,-,N/A,,Partly Cloudy,230,2012-10-26 10:50:00
2:20 PM,66.2,55.4,68,29.86,6.2,WSW,10.4,-,N/A,,Partly Cloudy,240,2012-10-26 11:20:00
2:50 PM,68.0,55.4,64,29.86,6.2,SW,10.4,-,N/A,,Partly Cloudy,230,2012-10-26 11:50:00
3:20 PM,66.2,55.4,68,29.86,6.2,SW,10.4,-,N/A,,Partly Cloudy,230,2012-10-26 12:20:00
3:50 PM,66.2,55.4,68,29.86,6.2,SW,9.2,-,N/A,,Partly Cloudy,230,2012-10-26 12:50:00
4:20 PM,66.2,53.6,64,29.86,-9999.0,SW,8.1,-,N/A,,Clear,230,2012-10-26 13:20:00
4:50 PM,66.2,53.6,64,29.86,-9999.0,SW,8.1,-,N/A,,Clear,230,2012-10-26 13:50:00
5:20 PM,66.2,53.6,64,29.86,-9999.0,SW,6.9,-,N/A,,Clear,220,2012-10-26 14:20:00
5:50 PM,64.4,53.6,68,29.86,-9999.0,SW,6.9,-,N/A,,Clear,230,2012-10-26 14:50:00
6:20 PM,62.6,53.6,72,29.86,-9999.0,WSW,5.8,-,N/A,,Clear,240,2012-10-26 15:20:00
6:50 PM,64.4,57.2,77,29.86,-9999.0,WSW,4.6,-,N/A,,Clear,250,2012-10-26 15:50:00
7:20 PM,62.6,57.2,82,29.86,-9999.0,WSW,4.6,-,N/A,,Clear,240,2012-10-26 16:20:00
7:50 PM,64.4,57.2,77,29.89,-9999.0,SW,3.5,-,N/A,,Clear,230,2012-10-26 16:50:00
8:20 PM,62.6,57.2,82,29.89,-9999.0,WSW,3.5,-,N/A,,Clear,240,2012-10-26 17:20:00
8:50 PM,64.4,55.4,73,29.89,-9999.0,WSW,4.6,-,N/A,,Clear,240,2012-10-26 17:50:00
9:00 PM,64,55,65,29.90,6,WSW,4.6,,,,,240,2012-10-26 18:00:00
9:20 PM,64.4,55.4,73,29.89,-9999.0,Variable,2.3,-,N/A,,Clear,0,2012-10-26 18:20:00
9:50 PM,64.4,55.4,73,29.89,-9999.0,SSW,3.5,-,N/A,,Clear,210,2012-10-26 18:50:00
10:20 PM,64.4,57.2,77,29.89,-9999.0,SW,3.5,-,N/A,,Clear,220,2012-10-26 19:20:00
10:50 PM,60.8,55.4,82,29.89,-9999.0,SSW,3.5,-,N/A,,Clear,210,2012-10-26 19:50:00
11:20 PM,62.6,57.2,82,29.92,-9999.0,SSW,3.5,-,N/A,,Clear,200,2012-10-26 20:20:00
11:50 PM,62.6,57.2,82,29.92,-9999.0,Variable,2.3,-,N/A,,Clear,0,2012-10-26 20:50:00